Airfield :
LOGIN :

Register | Disclaimer

   EN    FR    IT 

 










Legend :    VFR   Marginal VFR   IFR   Intensive IFR   Very Intensive IFR
Visi :
Ceiling :
>= 8 km
>= 3000ft
5 to 8 km
1000 to 3000 ft
1500m to 5 km
500 to 1000 ft
800 to 1500m
200 to 500 ft
< 800m
< 200 ft
Symbols :   Thunderstorms  Fog  Heavy snow  Heavy precipitations  Wind > 20 kt
SIGMETs :     Misc.  Thunderstorms  Icing  Turbulence  Mountain Waves  Volcanic Ashes







- Airport Elevation : 137 ft
- IATA code : THN


ESGT - Trollhattan-Vanersborg

CURRENT METAR :
  • 230350Z AUTO 21014KT 2200 -RA BKN004/// OVC006/// 07/06 Q1016

EXPIRED METARs :
  • 230320Z AUTO 22016KT 4000 BR OVC006/// 07/06 Q1016 REDZ
  • 230250Z AUTO 21016KT 4900 OVC008/// 07/05 Q1017
  • 230220Z AUTO 21015KT 5000 OVC009/// 07/06 Q1017
  • 230150Z AUTO 21014KT 6000 -DZ OVC011/// 07/05 Q1018 REDZ
  • 230120Z AUTO 21014KT 5000 SCT004/// BKN010/// OVC015/// 07/06 Q1018 REDZ

Expired Forecast.
No reported NOTAMs for that airfield.



MET'MAP, your aeronautical weather chart ! - Copyright ORBIFLY December 2007 - Disclaimer

ORBIFLY MET'MAP TEAM :

Programming & Development : Alexandra Zaïnal
Concept & Development : Baudouin d'Aumeries
Co-Development & Prog : Marc-Olivier Méhu
Technical & hardware support : Manuel Goepfert

Contact : metmap@orbifly.com




SOURCES & CREDITS :

   NOAA